createdAt,value
2019-05-17T00:00:57.544Z,10.40
2019-05-17T00:03:24.424Z,10.60
2019-05-17T00:05:51.375Z,10.40
2019-05-17T00:08:31.064Z,9.90
2019-05-17T00:10:46.485Z,10.30
2019-05-17T00:13:14.613Z,10.30
2019-05-17T00:15:39.158Z,10.20
2019-05-17T00:18:06.713Z,10.20
2019-05-17T00:20:33.029Z,10.20
2019-05-17T00:22:59.996Z,10.20
2019-05-17T00:25:27.410Z,10.10
2019-05-17T00:27:53.857Z,10.10
2019-05-17T00:30:20.797Z,10.10
2019-05-17T00:32:47.830Z,10.20
2019-05-17T00:35:17.913Z,10.20
2019-05-17T00:37:42.972Z,10.10
2019-05-17T00:40:09.917Z,10.10
2019-05-17T00:42:37.328Z,10.10
2019-05-17T00:45:06.577Z,10.00
2019-05-17T00:47:31.268Z,9.90
2019-05-17T00:49:58.231Z,9.80
2019-05-17T00:52:27.170Z,9.80
2019-05-17T00:54:52.128Z,9.80
2019-05-17T00:57:19.064Z,9.90
2019-05-17T00:59:47.554Z,9.80
2019-05-17T01:02:13.002Z,9.90
2019-05-17T01:04:39.944Z,9.80
2019-05-17T01:07:07.029Z,9.80
2019-05-17T01:09:33.819Z,9.70
2019-05-17T01:12:00.752Z,9.80
2019-05-17T01:14:27.705Z,11.10
2019-05-17T01:16:56.518Z,9.70
2019-05-17T01:19:21.568Z,9.60
2019-05-17T01:21:48.498Z,9.70
2019-05-17T01:24:17.329Z,9.70
2019-05-17T01:26:42.388Z,9.60
2019-05-17T01:29:09.324Z,9.60
2019-05-17T01:31:37.319Z,9.60
2019-05-17T01:34:03.176Z,9.60
2019-05-17T01:36:30.689Z,9.50
2019-05-17T01:38:57.810Z,9.40
2019-05-17T01:41:26.548Z,9.30
2019-05-17T01:43:51.587Z,6.40
2019-05-17T01:46:18.516Z,9.30
2019-05-17T01:48:47.133Z,9.30
2019-05-17T01:51:12.453Z,9.30
2019-05-17T01:53:39.392Z,9.30
2019-05-17T01:56:06.500Z,9.20
2019-05-17T01:58:33.297Z,9.10
2019-05-17T02:01:00.230Z,9.20
2019-05-17T02:03:27.157Z,9.10
2019-05-17T02:05:56.452Z,9.00
2019-05-17T02:08:21.045Z,9.00
2019-05-17T02:10:47.995Z,9.00
2019-05-17T02:13:16.440Z,8.90
2019-05-17T02:15:42.164Z,9.00
2019-05-17T02:18:09.081Z,9.00
2019-05-17T02:20:37.395Z,9.00
2019-05-17T02:23:03.072Z,8.90
2019-05-17T02:25:30.005Z,8.50
2019-05-17T02:27:56.960Z,8.90
2019-05-17T02:30:23.894Z,8.90
2019-05-17T02:32:53.870Z,9.00
2019-05-17T02:35:17.782Z,8.90
2019-05-17T02:37:44.960Z,8.90
2019-05-17T02:40:14.673Z,8.80
2019-05-17T02:42:38.868Z,8.90
2019-05-17T02:45:05.834Z,8.90
2019-05-17T02:47:33.670Z,8.90
2019-05-17T02:49:59.691Z,8.80
2019-05-17T02:52:26.644Z,8.70
2019-05-17T02:54:53.569Z,8.60
2019-05-17T02:57:23.293Z,8.80
2019-05-17T02:59:47.489Z,8.80
2019-05-17T03:02:14.434Z,8.70
2019-05-17T03:04:43.225Z,8.70
2019-05-17T03:07:08.321Z,8.70
2019-05-17T03:09:35.246Z,8.70
2019-05-17T03:12:03.270Z,8.70
2019-05-17T03:14:32.528Z,8.70
2019-05-17T03:16:56.044Z,8.60
2019-05-17T03:19:23.671Z,8.60
2019-05-17T03:21:53.284Z,8.60
2019-05-17T03:24:16.891Z,8.50
2019-05-17T03:26:43.847Z,8.40
2019-05-17T03:29:13.550Z,8.50
2019-05-17T03:31:44.695Z,8.50
2019-05-17T03:34:06.612Z,8.50
2019-05-17T03:36:36.348Z,8.50
2019-05-17T03:39:03.187Z,8.50
2019-05-17T03:41:29.120Z,8.40
2019-05-17T03:43:54.177Z,6.50
2019-05-17T03:46:23.291Z,8.30
2019-05-17T03:48:48.098Z,8.40
2019-05-17T03:51:28.147Z,7.10
2019-05-17T03:53:55.104Z,8.30
2019-05-17T03:56:22.499Z,8.30
2019-05-17T03:58:48.921Z,8.40
2019-05-17T04:01:15.865Z,8.40
2019-05-17T04:03:43.342Z,8.40
2019-05-17T04:06:13.055Z,8.30
2019-05-17T04:08:36.762Z,8.40
2019-05-17T04:11:20.296Z,8.30
2019-05-17T04:13:33.586Z,8.30
2019-05-17T04:15:57.678Z,8.30
2019-05-17T04:18:24.580Z,8.30
2019-05-17T04:20:52.791Z,8.20
2019-05-17T04:23:18.416Z,8.20
2019-05-17T04:25:45.359Z,8.30
2019-05-17T04:28:13.584Z,8.20
2019-05-17T04:30:43.011Z,8.20
2019-05-17T04:33:06.761Z,8.30
2019-05-17T04:35:33.701Z,8.30
2019-05-17T04:38:04.153Z,7.80
2019-05-17T04:40:28.117Z,8.30
2019-05-17T04:42:55.048Z,8.30
2019-05-17T04:45:23.108Z,8.40
2019-05-17T04:47:48.924Z,7.50
2019-05-17T04:50:15.852Z,8.40
2019-05-17T04:52:43.466Z,8.40
2019-05-17T04:55:13.010Z,8.40
2019-05-17T04:57:36.983Z,8.50
2019-05-17T05:00:05.045Z,8.60
2019-05-17T05:02:33.101Z,8.70
2019-05-17T05:04:58.900Z,8.80
2019-05-17T05:07:25.908Z,8.70
2019-05-17T05:09:52.842Z,8.00
2019-05-17T05:12:22.650Z,9.00
2019-05-17T05:14:46.885Z,9.10
2019-05-17T05:17:13.813Z,9.20
2019-05-17T05:19:42.295Z,9.30
2019-05-17T05:22:07.672Z,9.30
2019-05-17T05:24:34.596Z,9.30
2019-05-17T05:27:02.590Z,8.40
2019-05-17T05:29:28.512Z,9.70
2019-05-17T05:31:55.421Z,9.80
2019-05-17T05:34:22.348Z,10.10
2019-05-17T05:36:49.293Z,10.20
2019-05-17T05:39:16.218Z,10.40
2019-05-17T05:41:44.461Z,8.00
2019-05-17T05:44:12.250Z,10.70
2019-05-17T05:46:38.335Z,10.80
2019-05-17T05:49:05.266Z,11.00
2019-05-17T05:51:32.218Z,11.10
2019-05-17T05:54:01.609Z,11.30
2019-05-17T05:56:26.573Z,11.30
2019-05-17T05:58:53.503Z,11.50
2019-05-17T06:01:21.924Z,11.60
2019-05-17T06:03:47.359Z,11.60
2019-05-17T06:06:14.330Z,11.70
2019-05-17T06:08:41.541Z,11.80
2019-05-17T06:11:08.189Z,11.90
2019-05-17T06:13:35.147Z,12.00
2019-05-17T06:16:02.673Z,12.00
2019-05-17T06:18:29.000Z,12.30
2019-05-17T06:20:56.005Z,12.20
2019-05-17T06:23:23.408Z,12.30
2019-05-17T06:25:52.011Z,12.40
2019-05-17T06:28:16.846Z,12.50
2019-05-17T06:30:43.851Z,12.30
2019-05-17T06:33:12.040Z,12.70
2019-05-17T06:35:37.700Z,12.70
2019-05-17T06:38:04.624Z,12.90
2019-05-17T06:40:32.289Z,13.00
2019-05-17T06:42:58.704Z,12.90
2019-05-17T06:45:25.640Z,13.30
2019-05-17T06:47:52.581Z,13.30
2019-05-17T06:50:19.515Z,13.30
2019-05-17T06:52:46.440Z,13.50
2019-05-17T06:55:13.408Z,13.50
2019-05-17T06:57:42.845Z,13.60
2019-05-17T07:00:12.540Z,13.80
2019-05-17T07:02:36.038Z,13.70
2019-05-17T07:05:02.356Z,13.90
2019-05-17T07:07:30.491Z,14.00
2019-05-17T07:09:56.740Z,14.10
2019-05-17T07:12:23.719Z,14.20
2019-05-17T07:14:50.828Z,14.20
2019-05-17T07:17:19.604Z,14.40
2019-05-17T07:19:44.524Z,14.60
2019-05-17T07:22:11.448Z,14.70
2019-05-17T07:24:39.698Z,14.90
2019-05-17T07:27:05.346Z,14.90
2019-05-17T07:29:32.304Z,14.90
2019-05-17T07:32:00.342Z,15.00
2019-05-17T07:34:26.200Z,15.00
2019-05-17T07:36:53.130Z,14.90
2019-05-17T07:39:20.411Z,15.10
2019-05-17T07:41:49.318Z,15.10
2019-05-17T07:44:14.717Z,15.00
2019-05-17T07:46:41.626Z,14.80
2019-05-17T07:49:10.794Z,14.70
2019-05-17T07:51:35.612Z,14.80
2019-05-17T07:54:02.556Z,14.90
2019-05-17T07:56:30.541Z,15.10
2019-05-17T07:58:56.400Z,15.50
2019-05-17T08:01:23.322Z,15.60
2019-05-17T08:03:50.348Z,13.50
2019-05-17T08:06:19.789Z,15.90
2019-05-17T08:08:44.173Z,16.10
2019-05-17T08:11:11.112Z,16.10
2019-05-17T08:13:39.876Z,16.10
2019-05-17T08:16:04.981Z,16.10
2019-05-17T08:18:33.134Z,16.20
2019-05-17T08:20:59.933Z,16.30
2019-05-17T08:23:26.748Z,16.30
2019-05-17T08:25:56.346Z,16.30
2019-05-17T08:28:21.602Z,16.50
2019-05-17T08:30:49.965Z,16.60
2019-05-17T08:33:14.713Z,16.80
2019-05-17T08:35:41.696Z,16.90
2019-05-17T08:38:10.431Z,17.00
2019-05-17T08:40:35.613Z,17.30
2019-05-17T08:43:02.534Z,17.40
2019-05-17T08:45:29.698Z,17.50
2019-05-17T08:47:56.612Z,17.60
2019-05-17T08:50:23.552Z,17.80
2019-05-17T08:52:50.505Z,17.90
2019-05-17T08:55:17.455Z,17.80
2019-05-17T08:57:44.477Z,17.90
2019-05-17T09:00:11.416Z,15.40
2019-05-17T09:02:40.496Z,18.20
2019-05-17T09:05:05.285Z,18.30
2019-05-17T09:07:32.192Z,18.50
2019-05-17T09:10:01.523Z,18.30
2019-05-17T09:12:26.064Z,18.70
2019-05-17T09:14:53.010Z,18.90
2019-05-17T09:17:19.969Z,18.90
2019-05-17T09:19:46.891Z,19.00
2019-05-17T09:22:13.821Z,19.10
2019-05-17T09:24:40.756Z,19.10
2019-05-17T09:27:10.004Z,19.10
2019-05-17T09:29:34.692Z,17.40
2019-05-17T09:32:01.648Z,19.50
2019-05-17T09:34:29.974Z,19.60
2019-05-17T09:36:55.489Z,19.00
2019-05-17T09:39:22.425Z,19.80
2019-05-17T09:41:50.311Z,20.10
2019-05-17T09:44:16.665Z,20.30
2019-05-17T09:46:44.524Z,20.30
2019-05-17T09:49:11.433Z,20.50
2019-05-17T09:51:39.608Z,20.50
2019-05-17T09:54:05.294Z,20.80
2019-05-17T09:56:32.213Z,20.90
2019-05-17T09:59:00.426Z,21.10
2019-05-17T10:01:26.132Z,21.00
2019-05-17T10:03:53.085Z,19.00
2019-05-17T10:06:20.245Z,21.40
2019-05-17T10:08:49.322Z,21.50
2019-05-17T10:11:13.990Z,21.60
2019-05-17T10:13:40.924Z,21.60
2019-05-17T10:16:09.956Z,21.80
2019-05-17T10:18:34.832Z,21.80
2019-05-17T10:21:01.751Z,21.80
2019-05-17T10:23:29.936Z,21.80
2019-05-17T10:25:55.668Z,22.20
2019-05-17T10:28:22.615Z,22.50
2019-05-17T10:30:52.187Z,22.60
2019-05-17T10:33:16.509Z,22.70
2019-05-17T10:35:43.471Z,22.80
2019-05-17T10:38:10.619Z,23.00
2019-05-17T10:40:37.372Z,23.20
2019-05-17T10:43:04.339Z,24.80
2019-05-17T10:45:31.280Z,23.50
2019-05-17T10:48:00.649Z,23.80
2019-05-17T10:50:25.681Z,23.80
2019-05-17T10:52:52.616Z,24.20
2019-05-17T10:55:20.103Z,24.20
2019-05-17T10:57:46.497Z,24.40
2019-05-17T11:00:13.467Z,24.50
2019-05-17T11:02:40.409Z,24.90
2019-05-17T11:05:07.332Z,24.80
2019-05-17T11:07:34.323Z,24.40
2019-05-17T11:10:01.283Z,24.80
2019-05-17T11:12:28.254Z,24.70
2019-05-17T11:15:09.815Z,24.50
2019-05-17T11:17:22.149Z,24.40
2019-05-17T11:19:49.056Z,24.20
2019-05-17T11:22:16.080Z,24.30
2019-05-17T11:24:42.951Z,22.60
2019-05-17T11:27:09.877Z,24.70
2019-05-17T11:29:36.829Z,24.80
2019-05-17T11:32:03.750Z,24.70
2019-05-17T11:34:30.677Z,25.00
2019-05-17T11:36:57.629Z,25.00
2019-05-17T11:39:24.565Z,24.70
2019-05-17T11:41:51.497Z,24.70
2019-05-17T11:44:18.472Z,24.90
2019-05-17T11:46:45.409Z,25.00
2019-05-17T11:49:12.697Z,24.40
2019-05-17T11:51:39.805Z,25.10
2019-05-17T11:54:06.787Z,25.40
2019-05-17T11:56:33.708Z,25.40
2019-05-17T11:59:00.723Z,25.60
2019-05-17T12:01:27.659Z,25.30
2019-05-17T12:03:54.605Z,25.30
2019-05-17T12:06:21.578Z,26.40
2019-05-17T12:08:48.521Z,25.20
2019-05-17T12:11:15.451Z,25.30
2019-05-17T12:13:43.610Z,25.50
2019-05-17T12:16:09.348Z,25.80
2019-05-17T12:18:36.313Z,25.50
2019-05-17T12:21:03.268Z,25.60
2019-05-17T12:23:30.239Z,25.50
2019-05-17T12:25:57.159Z,25.50
2019-05-17T12:28:24.106Z,25.30
2019-05-17T12:30:51.108Z,24.90
2019-05-17T12:33:18.027Z,25.20
2019-05-17T12:35:44.975Z,25.10
2019-05-17T12:38:11.950Z,25.10
2019-05-17T12:40:38.833Z,24.10
2019-05-17T12:43:05.913Z,25.50
2019-05-17T12:45:32.840Z,25.40
2019-05-17T12:47:59.757Z,25.40
2019-05-17T12:50:28.047Z,25.60
2019-05-17T12:52:54.993Z,25.90
2019-05-17T12:55:21.924Z,26.50
2019-05-17T12:57:48.879Z,26.90
2019-05-17T13:00:15.833Z,26.50
2019-05-17T13:02:42.759Z,26.30
2019-05-17T13:05:09.737Z,25.80
2019-05-17T13:07:40.185Z,25.50
2019-05-17T13:10:04.188Z,25.50
2019-05-17T13:12:31.072Z,25.40
2019-05-17T13:14:58.000Z,25.60
2019-05-17T13:17:25.009Z,25.70
2019-05-17T13:19:51.951Z,25.60
2019-05-17T13:22:18.904Z,25.80
2019-05-17T13:24:45.830Z,25.60
2019-05-17T13:27:12.780Z,25.80
2019-05-17T13:29:39.708Z,25.90
2019-05-17T13:32:06.757Z,25.70
2019-05-17T13:34:33.708Z,26.00
2019-05-17T13:37:00.648Z,26.20
2019-05-17T13:39:27.586Z,26.30
2019-05-17T13:41:54.576Z,26.00
2019-05-17T13:44:21.472Z,25.80
2019-05-17T13:46:48.392Z,25.70
2019-05-17T13:49:15.493Z,25.30
2019-05-17T13:51:42.887Z,25.10
2019-05-17T13:54:09.844Z,24.80
2019-05-17T13:56:36.772Z,24.80
2019-05-17T13:59:03.733Z,24.80
2019-05-17T14:01:30.694Z,24.80
2019-05-17T14:03:57.653Z,24.70
2019-05-17T14:06:24.584Z,24.70
2019-05-17T14:08:51.581Z,24.80
2019-05-17T14:11:18.536Z,24.90
2019-05-17T14:13:45.449Z,24.70
2019-05-17T14:16:12.409Z,24.60
2019-05-17T14:18:39.352Z,24.50
2019-05-17T14:21:06.295Z,24.30
2019-05-17T14:23:33.223Z,24.10
2019-05-17T14:26:00.206Z,24.00
2019-05-17T14:28:27.105Z,24.10
2019-05-17T14:30:54.064Z,22.90
2019-05-17T14:33:21.000Z,23.80
2019-05-17T14:35:47.987Z,23.80
2019-05-17T14:38:14.957Z,23.80
2019-05-17T14:43:08.841Z,23.60
2019-05-17T14:45:35.757Z,23.50
2019-05-17T14:48:02.746Z,23.30
2019-05-17T14:50:29.684Z,23.30
2019-05-17T14:52:58.005Z,23.10
2019-05-17T14:55:25.324Z,23.20
2019-05-17T14:57:52.208Z,23.10
2019-05-17T15:00:19.185Z,23.00
2019-05-17T15:02:46.161Z,22.90
2019-05-17T15:05:13.101Z,22.90
2019-05-17T15:07:40.042Z,22.60
2019-05-17T15:10:06.997Z,22.20
2019-05-17T15:12:33.953Z,21.80
2019-05-17T15:15:00.885Z,21.60
2019-05-17T15:17:27.858Z,21.50
2019-05-17T15:19:54.777Z,20.00
2019-05-17T15:22:21.700Z,20.60
2019-05-17T15:24:48.640Z,19.50
2019-05-17T15:27:15.626Z,19.40
2019-05-17T15:29:42.548Z,19.20
2019-05-17T15:32:09.485Z,18.90
2019-05-17T15:34:36.403Z,18.70
2019-05-17T15:37:03.401Z,18.70
2019-05-17T15:39:30.359Z,18.60
2019-05-17T15:41:57.272Z,18.70
2019-05-17T15:44:26.929Z,18.60
2019-05-17T15:46:51.168Z,18.50
2019-05-17T15:49:18.102Z,18.50
2019-05-17T15:51:45.049Z,18.50
2019-05-17T15:54:12.299Z,18.40
2019-05-17T15:56:39.249Z,18.30
2019-05-17T15:59:06.185Z,17.70
2019-05-17T16:01:33.140Z,18.20
2019-05-17T16:04:00.091Z,18.20
2019-05-17T16:06:27.024Z,18.30
2019-05-17T16:08:53.969Z,18.40
2019-05-17T16:11:20.972Z,18.10
2019-05-17T16:13:47.862Z,18.10
2019-05-17T16:16:14.850Z,18.20
2019-05-17T16:18:41.744Z,15.60
2019-05-17T16:21:08.699Z,18.00
2019-05-17T16:23:35.725Z,17.90
2019-05-17T16:26:02.667Z,17.70
2019-05-17T16:28:29.587Z,17.50
2019-05-17T16:30:56.509Z,17.50
2019-05-17T16:33:23.440Z,17.30
2019-05-17T16:35:50.436Z,17.40
2019-05-17T16:38:17.390Z,17.40
2019-05-17T16:40:44.303Z,17.30
2019-05-17T16:43:18.153Z,17.30
2019-05-17T16:45:38.193Z,17.20
2019-05-17T16:48:05.125Z,17.40
2019-05-17T16:50:32.047Z,17.60
2019-05-17T16:53:05.923Z,17.70
2019-05-17T16:55:26.257Z,17.70
2019-05-17T16:57:53.175Z,17.80
2019-05-17T17:00:24.007Z,17.80
2019-05-17T17:02:50.980Z,17.80
2019-05-17T17:05:17.900Z,17.70
2019-05-17T17:07:45.185Z,17.70
2019-05-17T17:10:12.106Z,17.60
2019-05-17T17:12:39.040Z,17.60
2019-05-17T17:15:06.006Z,17.80
2019-05-17T17:17:32.944Z,17.70
2019-05-17T17:19:59.856Z,17.50
2019-05-17T17:22:26.813Z,16.90
2019-05-17T17:24:53.730Z,17.50
2019-05-17T17:27:20.664Z,17.50
2019-05-17T17:29:47.610Z,17.30
2019-05-17T17:32:21.678Z,17.20
2019-05-17T17:34:41.502Z,17.10
2019-05-17T17:37:08.447Z,17.10
2019-05-17T17:39:35.400Z,17.00
2019-05-17T17:42:02.344Z,17.00
2019-05-17T17:44:29.314Z,16.90
2019-05-17T17:46:56.228Z,16.90
2019-05-17T17:49:23.160Z,16.30
2019-05-17T17:51:50.108Z,16.80
2019-05-17T17:54:17.036Z,16.90
2019-05-17T17:56:44.283Z,16.80
2019-05-17T17:59:11.271Z,16.80
2019-05-17T18:01:38.199Z,16.70
2019-05-17T18:04:05.140Z,16.70
2019-05-17T18:06:32.081Z,16.80
2019-05-17T18:08:59.121Z,16.60
2019-05-17T18:11:26.067Z,16.70
2019-05-17T18:13:53.003Z,16.70
2019-05-17T18:16:19.925Z,16.70
2019-05-17T18:18:46.865Z,16.70
2019-05-17T18:21:13.839Z,16.60
2019-05-17T18:23:40.776Z,16.80
2019-05-17T18:26:07.710Z,16.70
2019-05-17T18:28:34.636Z,16.70
2019-05-17T18:31:01.674Z,16.60
2019-05-17T18:33:28.572Z,16.60
2019-05-17T18:35:55.564Z,14.20
2019-05-17T18:38:22.485Z,16.60
2019-05-17T18:40:49.448Z,16.70
2019-05-17T18:43:16.417Z,16.70
2019-05-17T18:45:43.449Z,16.70
2019-05-17T18:48:10.373Z,16.80
2019-05-17T18:50:37.326Z,16.80
2019-05-17T18:53:05.403Z,16.80
2019-05-17T18:55:31.569Z,16.80
2019-05-17T18:57:59.852Z,16.80
2019-05-17T19:00:26.804Z,16.60
2019-05-17T19:02:53.830Z,16.50
2019-05-17T19:05:20.752Z,16.50
2019-05-17T19:07:47.681Z,16.40
2019-05-17T19:10:14.611Z,16.30
2019-05-17T19:12:41.601Z,16.20
2019-05-17T19:15:08.524Z,16.20
2019-05-17T19:17:35.483Z,16.10
2019-05-17T19:20:02.493Z,16.10
2019-05-17T19:22:29.452Z,16.00
2019-05-17T19:24:56.387Z,16.00
2019-05-17T19:27:23.377Z,15.90
2019-05-17T19:29:50.318Z,15.90
2019-05-17T19:32:17.258Z,15.80
2019-05-17T19:34:44.221Z,15.70
2019-05-17T19:37:11.156Z,15.70
2019-05-17T19:39:38.104Z,14.90
2019-05-17T19:42:05.049Z,15.70
2019-05-17T19:44:32.001Z,15.60
2019-05-17T19:46:58.923Z,15.60
2019-05-17T19:49:25.893Z,15.60
2019-05-17T19:51:52.813Z,15.70
2019-05-17T19:54:19.728Z,15.70
2019-05-17T19:56:46.754Z,15.70
2019-05-17T19:59:14.101Z,15.50
2019-05-17T20:01:41.051Z,15.40
2019-05-17T20:04:07.988Z,15.40
2019-05-17T20:06:34.933Z,15.40
2019-05-17T20:09:02.071Z,15.60
2019-05-17T20:11:34.392Z,15.40
2019-05-17T20:13:56.087Z,14.80
2019-05-17T20:16:23.025Z,15.50
2019-05-17T20:18:49.961Z,15.50
2019-05-17T20:21:16.901Z,15.40
2019-05-17T20:23:43.914Z,15.40
2019-05-17T20:26:10.787Z,15.40
2019-05-17T20:28:37.745Z,15.40
2019-05-17T20:31:04.671Z,15.50
2019-05-17T20:33:31.654Z,15.50
2019-05-17T20:35:58.587Z,15.60
2019-05-17T20:38:25.528Z,15.20
2019-05-17T20:40:52.469Z,15.60
2019-05-17T20:43:19.428Z,15.60
2019-05-17T20:45:46.399Z,15.50
2019-05-17T20:48:13.357Z,15.50
2019-05-17T20:50:40.284Z,15.50
2019-05-17T20:53:18.428Z,15.40
2019-05-17T20:55:34.692Z,15.30
2019-05-17T20:58:01.632Z,15.10
2019-05-17T21:00:30.562Z,14.90
2019-05-17T21:02:57.541Z,14.90
2019-05-17T21:05:24.477Z,14.80
2019-05-17T21:07:51.400Z,14.70
2019-05-17T21:10:18.349Z,11.90
2019-05-17T21:12:45.278Z,14.40
2019-05-17T21:15:12.226Z,14.30
2019-05-17T21:17:39.228Z,14.20
2019-05-17T21:20:06.162Z,14.20
2019-05-17T21:22:33.095Z,14.10
2019-05-17T21:25:00.044Z,14.10
2019-05-17T21:27:26.969Z,14.10
2019-05-17T21:29:53.925Z,14.10
2019-05-17T21:32:20.979Z,14.10
2019-05-17T21:34:47.896Z,14.10
2019-05-17T21:37:14.848Z,14.10
2019-05-17T21:39:42.159Z,14.00
2019-05-17T21:42:08.732Z,14.20
2019-05-17T21:44:35.663Z,14.10
2019-05-17T21:47:04.917Z,14.10
2019-05-17T21:49:29.568Z,14.10
2019-05-17T21:51:56.538Z,14.30
2019-05-17T21:54:23.465Z,13.10
2019-05-17T21:56:50.405Z,14.40
2019-05-17T21:59:17.340Z,14.20
2019-05-17T22:01:44.426Z,14.20
2019-05-17T22:04:11.366Z,14.40
2019-05-17T22:06:38.308Z,14.40
2019-05-17T22:09:06.663Z,14.50
2019-05-17T22:11:33.609Z,14.40
2019-05-17T22:14:00.566Z,14.40
2019-05-17T22:16:27.505Z,14.40
2019-05-17T22:18:54.425Z,14.30
2019-05-17T22:21:21.365Z,14.20
2019-05-17T22:23:48.338Z,14.20
2019-05-17T22:26:15.287Z,14.10
2019-05-17T22:28:42.224Z,14.00
2019-05-17T22:31:09.137Z,14.00
2019-05-17T22:33:36.117Z,13.90
2019-05-17T22:36:03.094Z,15.70
2019-05-17T22:38:30.033Z,13.20
2019-05-17T22:40:56.971Z,13.80
2019-05-17T22:43:23.911Z,14.10
2019-05-17T22:45:50.866Z,14.20
2019-05-17T22:48:17.800Z,14.30
2019-05-17T22:50:44.749Z,14.20
2019-05-17T22:53:11.790Z,12.80
2019-05-17T22:55:38.719Z,14.10
2019-05-17T22:58:05.662Z,14.00
2019-05-17T23:00:32.598Z,14.00
2019-05-17T23:03:01.110Z,14.00
2019-05-17T23:05:28.042Z,14.00
2019-05-17T23:07:55.014Z,14.00
2019-05-17T23:10:21.935Z,13.90
2019-05-17T23:12:48.893Z,13.90
2019-05-17T23:15:15.812Z,14.90
2019-05-17T23:17:42.774Z,13.90
2019-05-17T23:20:09.714Z,13.90
2019-05-17T23:22:36.687Z,13.80
2019-05-17T23:25:03.635Z,13.90
2019-05-17T23:27:30.599Z,13.90
2019-05-17T23:29:57.569Z,13.80
2019-05-17T23:32:24.489Z,13.90
2019-05-17T23:34:51.425Z,13.90
2019-05-17T23:37:18.380Z,13.80
2019-05-17T23:39:45.398Z,13.90
2019-05-17T23:42:12.429Z,13.80
2019-05-17T23:44:39.384Z,13.80
2019-05-17T23:47:07.553Z,13.80
2019-05-17T23:49:33.261Z,13.80
2019-05-17T23:52:00.356Z,13.90
2019-05-17T23:54:27.296Z,13.80
2019-05-17T23:56:54.236Z,13.80
2019-05-17T23:59:21.198Z,13.90
